Time;durP1;ratioP1;P1;durP2;ratioP2;P2;SDS_P1;SDS_P2;PMS_P1;PMS_P2;Temp;Humidity;BMP_temperature;BMP_pressure;BME280_temperature;BME280_humidity;BME280_pressure;Samples;Min_cycle;Max_cycle;Signal;HPM_P1;HPM_P2
2023/11/02 00:00:37;;;;;;;1.10;0.80;;;;;;;2.40;82.85;95305.05;106982;1273;25363;-80
2023/11/02 00:03:32;;;;;;;0.80;0.80;;;;;;;2.35;82.77;95301.55;106961;1273;25280;-80
2023/11/02 00:06:35;;;;;;;0.80;0.60;;;;;;;2.36;83.44;95298.95;107024;1272;22531;-80
2023/11/02 00:09:04;;;;;;;0.60;0.50;;;;;;;2.35;83.15;95298.25;107165;1273;25371;-80
2023/11/02 00:11:48;;;;;;;0.50;0.50;;;;;;;2.39;83.37;95296.54;106981;1273;24353;-80
2023/11/02 00:14:18;;;;;;;1.20;0.70;;;;;;;2.38;83.18;95294.11;106841;1273;22614;-80
2023/11/02 00:16:48;;;;;;;1.80;0.90;;;;;;;2.32;84.45;95286.77;107019;1273;24418;-80
2023/11/02 00:19:22;;;;;;;1.60;1.20;;;;;;;2.30;85.34;95286.59;106794;1273;22518;-80
2023/11/02 00:21:50;;;;;;;1.60;1.00;;;;;;;2.30;84.92;95288.66;106957;1273;22514;-80
2023/11/02 00:24:18;;;;;;;2.30;1.60;;;;;;;2.28;85.33;95287.95;106950;1273;24206;-80
2023/11/02 00:26:46;;;;;;;1.60;1.00;;;;;;;2.29;84.81;95288.99;106781;1273;25261;-80
2023/11/02 00:29:14;;;;;;;1.00;0.60;;;;;;;2.34;84.83;95289.39;107004;1263;25389;-80
2023/11/02 00:31:43;;;;;;;1.00;0.80;;;;;;;2.41;84.62;95288.39;106741;1273;22528;-81
2023/11/02 00:34:11;;;;;;;0.50;0.50;;;;;;;2.51;84.58;95282.91;107072;1273;24268;-80
2023/11/02 00:36:39;;;;;;;0.90;0.70;;;;;;;2.57;84.47;95276.19;106964;1273;23909;-81
2023/11/02 00:39:07;;;;;;;0.90;0.60;;;;;;;2.65;84.39;95273.47;106932;1273;24234;-80
2023/11/02 00:41:36;;;;;;;1.40;0.80;;;;;;;2.65;83.79;95268.09;106975;1273;22512;-80
2023/11/02 00:44:05;;;;;;;1.20;0.90;;;;;;;2.65;83.73;95263.05;106791;1273;25306;-80
2023/11/02 00:46:34;;;;;;;1.70;1.00;;;;;;;2.67;84.02;95257.86;106814;1273;25365;-80
2023/11/02 00:49:02;;;;;;;0.80;0.70;;;;;;;2.70;83.76;95257.02;106791;1273;25366;-80
2023/11/02 00:51:31;;;;;;;0.70;0.60;;;;;;;2.78;83.95;95257.05;106792;1273;22520;-80
2023/11/02 00:54:06;;;;;;;0.50;0.40;;;;;;;2.87;83.96;95253.62;106975;1272;22525;-80
2023/11/02 00:56:39;;;;;;;2.80;0.60;;;;;;;2.97;84.02;95247.77;106852;1273;24076;-81
2023/11/02 00:59:07;;;;;;;1.20;0.70;;;;;;;3.09;83.77;95248.88;107042;1273;22998;-80
2023/11/02 01:01:36;;;;;;;0.70;0.60;;;;;;;3.15;83.36;95251.52;107011;1273;24273;-80
2023/11/02 01:04:25;;;;;;;1.20;0.80;;;;;;;3.12;82.86;95256.88;107018;1273;22961;-80
2023/11/02 01:06:54;;;;;;;0.70;0.60;;;;;;;3.10;83.00;95256.52;106978;1273;25414;-80
2023/11/02 01:09:37;;;;;;;3.20;1.10;;;;;;;3.07;83.60;95254.61;107037;1273;22517;-80
2023/11/02 01:12:05;;;;;;;;;;;;;;;3.09;83.05;95257.57;107009;1273;25430;-80
2023/11/02 01:14:48;;;;;;;1.10;0.60;;;;;;;2.99;82.80;95256.30;106986;1264;24209;-81
2023/11/02 01:17:31;;;;;;;0.70;0.70;;;;;;;3.03;83.28;95254.59;107023;1272;22507;-80
2023/11/02 01:20:06;;;;;;;0.60;0.50;;;;;;;3.05;83.08;95254.07;106834;1273;24040;-80
2023/11/02 01:23:00;;;;;;;0.70;0.60;;;;;;;2.93;83.20;95251.56;106730;1273;24237;-80
2023/11/02 01:25:30;;;;;;;0.90;0.70;;;;;;;2.86;84.18;95254.32;107087;1273;24288;-80
2023/11/02 01:28:01;;;;;;;2.00;1.00;;;;;;;2.85;84.01;95252.56;106774;1273;24250;-80
2023/11/02 01:30:38;;;;;;;0.90;0.70;;;;;;;2.88;84.32;95253.29;107034;1273;25404;-80
2023/11/02 01:33:45;;;;;;;1.60;0.90;;;;;;;2.88;83.87;95252.77;106792;1273;22533;-80
2023/11/02 01:36:38;;;;;;;1.20;0.70;;;;;;;2.89;84.57;95253.81;106786;1273;24219;-80
2023/11/02 01:39:12;;;;;;;1.80;0.80;;;;;;;2.87;84.12;95249.63;106964;1273;25345;-80
2023/11/02 01:41:47;;;;;;;1.40;0.80;;;;;;;2.91;83.82;95244.44;106968;1273;24281;-80
2023/11/02 01:44:34;;;;;;;0.80;0.70;;;;;;;2.94;83.74;95247.94;106988;1273;25306;-80
2023/11/02 01:47:02;;;;;;;0.70;0.60;;;;;;;2.93;83.84;95246.37;107009;1272;24278;-80
2023/11/02 01:49:48;;;;;;;1.60;0.90;;;;;;;2.88;85.33;95252.06;106908;1273;26513;-80
2023/11/02 01:52:30;;;;;;;2.30;1.40;;;;;;;2.86;85.74;95255.35;107013;1273;22521;-80
2023/11/02 01:55:24;;;;;;;1.10;0.80;;;;;;;2.84;86.02;95252.23;107012;1273;24263;-80
2023/11/02 01:57:54;;;;;;;;;;;;;;;2.78;85.96;95254.45;106887;1273;25306;-80
2023/11/02 02:00:32;;;;;;;0.60;0.60;;;;;;;2.76;85.45;95250.27;106807;1273;24203;-80
2023/11/02 02:03:17;;;;;;;1.10;0.60;;;;;;;2.78;85.26;95249.07;106910;1272;22630;-80
2023/11/02 02:05:55;;;;;;;1.50;1.00;;;;;;;2.82;85.68;95241.61;107037;1273;22635;-80
2023/11/02 02:08:47;;;;;;;2.40;1.30;;;;;;;2.86;86.11;95237.80;106828;1273;22534;-80
2023/11/02 02:11:34;;;;;;;2.70;1.60;;;;;;;2.87;85.51;95237.13;107046;1273;22639;-80
2023/11/02 02:14:05;;;;;;;4.10;1.50;;;;;;;2.91;85.67;95230.89;106929;1273;22535;-80
2023/11/02 02:16:46;;;;;;;1.30;0.90;;;;;;;2.94;85.47;95225.88;106978;1273;22554;-80
2023/11/02 02:19:17;;;;;;;1.50;0.90;;;;;;;2.95;85.73;95227.09;107015;1273;22517;-80
2023/11/02 02:21:59;;;;;;;0.70;0.50;;;;;;;2.94;85.19;95219.27;106974;1273;26528;-80
2023/11/02 02:24:34;;;;;;;0.70;0.50;;;;;;;2.96;85.03;95218.23;106840;1273;22523;-80
2023/11/02 02:27:30;;;;;;;1.90;1.40;;;;;;;3.01;85.17;95217.92;106872;1273;24237;-80
2023/11/02 02:30:26;;;;;;;0.70;0.40;;;;;;;3.08;84.98;95219.49;106930;1273;22520;-80
2023/11/02 02:33:32;;;;;;;2.30;0.40;;;;;;;3.14;85.16;95217.80;106807;1273;23429;-80
2023/11/02 02:36:14;;;;;;;4.60;1.30;;;;;;;3.14;85.34;95217.97;106789;1273;22572;-80
2023/11/02 02:38:47;;;;;;;3.00;1.60;;;;;;;3.22;85.44;95216.43;106793;1272;24215;-80
2023/11/02 02:41:19;;;;;;;5.50;1.70;;;;;;;3.28;84.62;95207.94;106863;1273;24215;-80
2023/11/02 02:43:56;;;;;;;2.30;1.60;;;;;;;3.27;84.09;95204.45;106957;1273;25334;-80
2023/11/02 02:46:28;;;;;;;6.00;2.00;;;;;;;3.27;83.90;95204.11;106830;1272;22516;-80
2023/11/02 02:48:56;;;;;;;1.20;0.70;;;;;;;3.24;83.69;95203.73;106992;1273;23000;-81
2023/11/02 02:51:26;;;;;;;1.20;0.80;;;;;;;3.23;83.67;95201.66;106698;1274;23911;-80
2023/11/02 02:53:58;;;;;;;1.10;0.80;;;;;;;3.22;83.78;95205.48;106771;1274;22527;-80
2023/11/02 02:56:29;;;;;;;1.90;0.80;;;;;;;3.19;83.69;95202.34;106824;1274;25234;-80
2023/11/02 02:59:08;;;;;;;1.90;0.80;;;;;;;3.16;84.39;95203.20;106847;1274;24275;-80
2023/11/02 03:01:42;;;;;;;3.40;1.60;;;;;;;3.14;84.74;95206.48;106669;1275;22521;-80
2023/11/02 03:04:14;;;;;;;2.20;1.60;;;;;;;3.13;84.40;95208.06;106835;1274;25510;-80
2023/11/02 03:06:54;;;;;;;1.70;1.30;;;;;;;3.13;84.45;95204.92;106802;1274;24940;-80
2023/11/02 03:09:26;;;;;;;0.60;0.60;;;;;;;3.10;84.58;95205.27;106794;1275;25497;-80
2023/11/02 03:11:59;;;;;;;0.50;0.30;;;;;;;3.08;84.22;95200.55;106737;1274;22521;-80
2023/11/02 03:14:29;;;;;;;1.20;0.40;;;;;;;3.02;84.56;95199.33;106819;1274;22521;-80
2023/11/02 03:17:06;;;;;;;3.40;0.70;;;;;;;2.99;86.23;95196.36;106786;1274;24319;-80
2023/11/02 03:19:50;;;;;;;1.90;1.30;;;;;;;2.97;85.84;95194.27;106811;1274;25280;-80
2023/11/02 03:22:22;;;;;;;0.40;0.40;;;;;;;2.93;85.41;95191.81;106827;1275;22525;-80
2023/11/02 03:25:01;;;;;;;0.30;0.20;;;;;;;2.94;85.23;95186.09;106807;1275;23915;-80
2023/11/02 03:27:54;;;;;;;0.80;0.50;;;;;;;2.97;85.04;95185.76;106664;1274;23915;-80
2023/11/02 03:30:40;;;;;;;1.90;0.70;;;;;;;2.97;84.92;95184.70;106709;1274;22563;-80
2023/11/02 03:33:27;;;;;;;0.40;0.40;;;;;;;2.95;86.62;95181.23;106771;1274;22525;-81
2023/11/02 03:36:31;;;;;;;1.40;0.60;;;;;;;2.92;87.08;95179.29;106824;1274;22530;-80
2023/11/02 03:39:16;;;;;;;2.80;0.70;;;;;;;2.92;87.05;95171.30;106646;1274;24531;-80
2023/11/02 03:41:52;;;;;;;0.30;0.30;;;;;;;2.98;86.89;95172.73;106745;1274;22808;-81
2023/11/02 03:44:39;;;;;;;1.70;1.10;;;;;;;3.01;86.93;95170.30;106726;1257;24403;-80
2023/11/02 03:47:44;;;;;;;2.50;1.60;;;;;;;3.06;86.75;95164.75;106762;1274;22508;-80
2023/11/02 03:50:49;;;;;;;2.90;1.60;;;;;;;3.09;86.56;95163.73;106860;1257;24325;-80
2023/11/02 03:53:26;;;;;;;1.20;0.60;;;;;;;3.13;86.25;95159.39;106955;1273;25369;-80
2023/11/02 03:56:34;;;;;;;3.20;1.30;;;;;;;3.16;86.75;95151.92;106994;1273;22527;-80
2023/11/02 03:59:17;;;;;;;1.20;0.90;;;;;;;3.15;85.95;95150.70;106864;1273;22647;-81
2023/11/02 04:02:03;;;;;;;1.20;0.70;;;;;;;3.19;86.41;95147.77;106777;1273;261548;-80
2023/11/02 04:04:48;;;;;;;2.10;0.80;;;;;;;3.26;86.74;95152.82;106757;1273;22514;-80
2023/11/02 04:07:22;;;;;;;1.40;1.00;;;;;;;3.42;86.81;95151.64;106862;1273;22722;-80
2023/11/02 04:09:58;;;;;;;1.80;1.20;;;;;;;3.50;85.75;95151.84;106834;1273;23263;-80
2023/11/02 04:12:37;;;;;;;1.60;1.00;;;;;;;3.48;85.55;95144.88;107039;1273;22987;-80
2023/11/02 04:15:08;;;;;;;1.50;0.80;;;;;;;3.55;85.54;95142.79;106838;1273;24600;-80
2023/11/02 04:17:36;;;;;;;1.70;0.90;;;;;;;3.54;85.28;95140.52;107009;1273;25424;-80
2023/11/02 04:20:09;;;;;;;2.20;1.10;;;;;;;3.62;85.42;95133.77;107084;1273;22631;-80
2023/11/02 04:22:39;;;;;;;0.40;0.40;;;;;;;3.64;84.87;95132.55;107088;1273;24276;-81
2023/11/02 04:25:07;;;;;;;1.80;0.50;;;;;;;3.58;84.54;95129.58;106920;1273;22521;-81
2023/11/02 04:27:36;;;;;;;1.50;0.30;;;;;;;3.55;84.59;95129.05;107143;1273;23877;-80
2023/11/02 04:30:05;;;;;;;0.40;0.40;;;;;;;3.55;84.89;95130.97;107089;1273;22523;-80
2023/11/02 04:32:34;;;;;;;0.90;0.60;;;;;;;3.52;85.54;95133.77;107162;1273;24324;-80
2023/11/02 04:35:02;;;;;;;1.00;0.60;;;;;;;3.56;85.85;95131.14;106922;1273;22528;-80
2023/11/02 04:37:30;;;;;;;0.60;0.20;;;;;;;3.56;85.68;95126.44;106973;1273;22570;-80
2023/11/02 04:39:58;;;;;;;4.50;2.20;;;;;;;3.53;85.31;95125.05;106881;1273;22547;-81
2023/11/02 04:42:27;;;;;;;4.80;3.00;;;;;;;3.54;85.32;95121.23;106715;1273;25436;-80
2023/11/02 04:44:55;;;;;;;9.90;4.80;;;;;;;3.53;84.97;95119.48;106988;1273;25360;-80
2023/11/02 04:47:23;;;;;;;15.50;7.50;;;;;;;3.49;85.19;95122.26;106837;1273;22633;-80
2023/11/02 04:49:52;;;;;;;16.90;7.60;;;;;;;3.50;85.37;95122.79;106843;1273;25559;-80
2023/11/02 04:52:20;;;;;;;10.70;5.10;;;;;;;3.50;85.29;95120.54;106855;1273;25336;-80
2023/11/02 04:54:48;;;;;;;9.40;4.60;;;;;;;3.47;85.47;95114.78;106877;1273;23868;-80
2023/11/02 04:57:17;;;;;;;7.30;3.60;;;;;;;3.41;85.47;95113.22;106889;1273;24250;-80
2023/11/02 04:59:45;;;;;;;13.90;4.90;;;;;;;3.37;86.38;95108.16;106945;1273;22520;-80
2023/11/02 05:02:14;;;;;;;25.00;10.20;;;;;;;3.35;86.39;95108.52;107063;1251;24502;-80
2023/11/02 05:04:42;;;;;;;29.00;12.80;;;;;;;3.31;85.92;95111.45;106833;1273;24586;-80
2023/11/02 05:07:10;;;;;;;44.10;19.70;;;;;;;3.26;85.86;95113.36;106983;1273;22528;-80
2023/11/02 05:09:38;;;;;;;18.90;10.10;;;;;;;3.23;86.30;95118.75;106975;1273;23514;-81
2023/11/02 05:12:06;;;;;;;22.10;12.40;;;;;;;3.22;85.99;95109.70;106824;1273;25418;-79
2023/11/02 05:14:34;;;;;;;23.50;11.80;;;;;;;3.25;86.15;95111.11;106794;1273;22539;-80
2023/11/02 05:17:03;;;;;;;12.00;6.60;;;;;;;3.24;85.94;95111.63;106993;1273;22521;-80
2023/11/02 05:19:31;;;;;;;5.80;3.30;;;;;;;3.26;85.96;95111.80;106994;1273;22518;-80
2023/11/02 05:21:59;;;;;;;11.90;5.40;;;;;;;3.31;86.24;95105.55;107087;1272;22638;-80
2023/11/02 05:24:27;;;;;;;18.50;7.00;;;;;;;3.38;86.22;95101.74;106941;1273;25434;-80
2023/11/02 05:26:55;;;;;;;10.80;4.40;;;;;;;3.42;85.52;95104.52;107031;1273;22642;-80
2023/11/02 05:29:23;;;;;;;10.30;5.00;;;;;;;3.44;85.47;95091.48;106756;1273;25439;-80
2023/11/02 05:31:52;;;;;;;37.10;18.70;;;;;;;3.45;85.57;95085.05;106827;1273;22511;-80
2023/11/02 05:34:20;;;;;;;35.00;17.00;;;;;;;3.46;85.41;95085.05;106773;1273;22517;-80
2023/11/02 05:36:48;;;;;;;27.60;13.60;;;;;;;3.45;85.58;95082.10;106815;1273;22561;-80
2023/11/02 05:39:16;;;;;;;28.10;15.00;;;;;;;3.46;85.54;95085.23;106815;1273;24060;-81
2023/11/02 05:41:45;;;;;;;55.10;27.50;;;;;;;3.44;85.87;95081.58;106987;1273;22551;-80
2023/11/02 05:44:13;;;;;;;57.60;28.90;;;;;;;3.47;85.96;95084.17;106889;1273;23880;-80
2023/11/02 05:46:42;;;;;;;60.00;33.40;;;;;;;3.54;86.08;95086.63;106775;1273;25239;-80
2023/11/02 05:49:10;;;;;;;58.70;32.00;;;;;;;3.59;86.20;95085.59;106969;1273;22543;-79
2023/11/02 05:51:38;;;;;;;32.00;17.80;;;;;;;3.71;86.12;95088.54;106991;1272;24578;-80
2023/11/02 05:54:06;;;;;;;11.20;6.60;;;;;;;3.75;85.58;95092.19;106732;1273;22651;-80
2023/11/02 05:56:35;;;;;;;19.80;10.90;;;;;;;3.79;85.43;95086.80;106803;1273;22651;-80
2023/11/02 05:59:05;;;;;;;26.70;13.00;;;;;;;3.83;85.28;95083.99;106925;1273;24245;-80
2023/11/02 06:01:34;;;;;;;10.90;7.10;;;;;;;3.85;85.19;95086.09;106846;1273;22547;-79
2023/11/02 06:04:02;;;;;;;12.10;7.30;;;;;;;3.89;84.94;95087.14;107051;1273;25411;-80
2023/11/02 06:06:31;;;;;;;5.40;4.00;;;;;;;3.95;85.08;95088.87;107023;1272;22521;-79
2023/11/02 06:08:59;;;;;;;3.40;2.30;;;;;;;3.99;84.99;95089.20;106977;1273;24236;-79
2023/11/02 06:19:14;;;;;;;17.10;10.20;;;;;;;4.09;84.50;95082.05;103667;1304;545781;-81
2023/11/02 06:21:43;;;;;;;19.80;11.10;;;;;;;4.12;84.66;95077.70;106620;1281;25419;-80
2023/11/02 06:24:11;;;;;;;46.10;24.00;;;;;;;4.16;85.81;95084.83;106622;1281;22527;-80
2023/11/02 06:26:40;;;;;;;24.10;13.90;;;;;;;4.23;85.87;95081.69;106710;1271;25270;-80
2023/11/02 06:29:11;;;;;;;14.10;9.10;;;;;;;4.26;85.75;95082.90;106609;1281;24295;-81
2023/11/02 06:31:39;;;;;;;8.00;5.70;;;;;;;4.32;85.57;95078.88;106376;1281;22549;-80
2023/11/02 06:34:07;;;;;;;18.40;10.50;;;;;;;4.41;85.60;95079.19;106620;1278;22530;-80
2023/11/02 06:36:35;;;;;;;17.50;10.70;;;;;;;4.51;85.55;95082.47;106757;1278;22536;-80
2023/11/02 06:39:05;;;;;;;19.70;11.80;;;;;;;4.61;85.52;95079.47;106697;1278;24324;-80
2023/11/02 06:41:33;;;;;;;32.40;15.90;;;;;;;4.69;85.26;95081.70;106755;1278;24401;-80
2023/11/02 06:44:02;;;;;;;22.60;14.80;;;;;;;4.83;84.91;95079.73;106773;1278;22533;-81
2023/11/02 06:46:30;;;;;;;15.60;9.40;;;;;;;4.93;83.32;95072.01;106684;1278;25306;-81
2023/11/02 06:48:58;;;;;;;5.00;3.50;;;;;;;5.07;83.68;95072.46;106680;1278;23881;-80
2023/11/02 06:51:32;;;;;;;11.10;7.70;;;;;;;5.22;83.90;95064.52;106770;1278;22981;-80
2023/11/02 06:54:00;;;;;;;10.80;5.60;;;;;;;5.32;83.10;95063.41;106758;1278;25422;-81
2023/11/02 06:56:28;;;;;;;7.90;4.90;;;;;;;5.39;81.78;95062.84;106653;1278;23884;-80
2023/11/02 06:58:57;;;;;;;15.00;6.40;;;;;;;5.45;81.24;95061.91;106751;1278;24278;-80
2023/11/02 07:01:25;;;;;;;9.90;4.80;;;;;;;5.50;80.47;95062.23;106632;1278;24303;-81
2023/11/02 07:03:53;;;;;;;7.50;4.10;;;;;;;5.61;81.35;95060.56;106757;1278;22535;-81
2023/11/02 07:06:21;;;;;;;9.90;5.00;;;;;;;5.78;81.07;95062.86;106807;1278;22536;-80
2023/11/02 07:08:50;;;;;;;11.70;8.30;;;;;;;5.87;80.05;95058.95;106825;1278;22650;-81
2023/11/02 07:11:18;;;;;;;9.10;6.40;;;;;;;5.92;79.28;95061.00;106824;1274;25432;-81
2023/11/02 07:13:47;;;;;;;15.40;9.10;;;;;;;5.93;78.69;95055.07;106857;1274;22530;-79
2023/11/02 07:16:15;;;;;;;7.40;4.70;;;;;;;5.96;78.67;95050.53;106875;1274;22522;-79
2023/11/02 07:18:43;;;;;;;14.30;8.00;;;;;;;5.96;78.47;95046.85;106827;1274;24260;-78
2023/11/02 07:21:11;;;;;;;8.50;4.00;;;;;;;5.95;77.47;95049.48;106863;1274;22532;-80
2023/11/02 07:23:40;;;;;;;8.90;5.40;;;;;;;5.96;78.18;95049.83;107012;1274;24350;-80
2023/11/02 07:26:08;;;;;;;4.30;2.70;;;;;;;5.98;77.45;95052.25;106844;1274;23877;-79
2023/11/02 07:28:36;;;;;;;3.10;2.10;;;;;;;6.06;77.64;95051.14;106932;1274;22566;-80
2023/11/02 07:31:05;;;;;;;3.60;1.70;;;;;;;6.17;78.03;95046.65;106815;1274;24233;-80
2023/11/02 07:33:39;;;;;;;2.80;1.60;;;;;;;6.25;77.74;95038.36;106807;1274;25482;-79
2023/11/02 07:36:12;;;;;;;2.40;1.30;;;;;;;6.36;77.99;95036.33;107089;1274;25252;-80
2023/11/02 07:38:52;;;;;;;2.00;1.30;;;;;;;6.51;77.93;95039.80;106816;1274;22513;-80
2023/11/02 07:41:20;;;;;;;2.10;1.40;;;;;;;6.66;78.02;95035.44;106825;1274;22523;-79
2023/11/02 07:43:49;;;;;;;2.10;1.20;;;;;;;6.88;78.16;95030.78;106714;1274;24209;-80
2023/11/02 07:46:17;;;;;;;1.40;1.30;;;;;;;7.14;77.84;95023.42;106609;1274;22612;-79
2023/11/02 07:48:45;;;;;;;1.70;1.20;;;;;;;7.34;75.87;95026.63;106707;1274;22542;-78
2023/11/02 07:51:14;;;;;;;1.80;1.30;;;;;;;7.53;76.26;95024.23;106725;1274;23972;-78
2023/11/02 07:53:42;;;;;;;1.90;1.30;;;;;;;7.72;75.69;95022.34;106684;1274;22530;-77
2023/11/02 07:56:11;;;;;;;4.50;2.00;;;;;;;7.85;75.30;95020.20;106746;1274;25295;-78
2023/11/02 07:58:45;;;;;;;2.30;1.10;;;;;;;7.99;75.03;95017.67;106692;1274;25619;-78
2023/11/02 08:01:19;;;;;;;1.90;1.50;;;;;;;8.01;73.96;95014.67;106835;1274;22640;-78
2023/11/02 08:03:47;;;;;;;2.30;1.40;;;;;;;8.01;73.85;95014.66;106906;1274;22523;-79
2023/11/02 08:06:15;;;;;;;1.30;1.00;;;;;;;7.99;73.15;95015.76;106778;1274;26682;-78
2023/11/02 08:08:44;;;;;;;1.40;1.10;;;;;;;7.97;73.04;95016.66;106751;1274;22650;-79
2023/11/02 08:11:12;;;;;;;1.50;1.10;;;;;;;7.95;71.88;95020.21;107050;1274;25501;-79
2023/11/02 08:13:40;;;;;;;2.30;1.40;;;;;;;7.92;71.87;95014.30;106960;1251;25667;-79
2023/11/02 08:16:08;;;;;;;2.20;1.10;;;;;;;7.95;72.71;95012.84;106642;1274;24443;-79
2023/11/02 08:18:37;;;;;;;4.50;1.40;;;;;;;8.01;72.45;95013.80;106645;1274;22532;-79
2023/11/02 08:21:08;;;;;;;3.00;1.10;;;;;;;8.00;71.98;95008.55;106735;1274;24234;-79
2023/11/02 08:23:36;;;;;;;2.80;1.30;;;;;;;8.01;71.75;95008.37;106725;1274;24367;-79
2023/11/02 08:26:04;;;;;;;1.90;1.30;;;;;;;8.00;71.64;95009.97;106757;1259;25504;-79
2023/11/02 08:28:33;;;;;;;3.10;1.90;;;;;;;7.99;71.83;95002.45;106671;1274;22527;-79
2023/11/02 08:31:01;;;;;;;1.60;1.50;;;;;;;8.00;72.44;95009.95;106708;1274;22528;-79
2023/11/02 08:33:30;;;;;;;6.50;4.10;;;;;;;8.05;72.36;95013.02;106730;1274;25399;-79
2023/11/02 08:35:58;;;;;;;1.90;1.60;;;;;;;8.07;72.54;95009.84;106612;1274;24244;-79
2023/11/02 08:38:27;;;;;;;2.40;1.30;;;;;;;8.10;72.67;95013.64;106773;1274;22521;-79
2023/11/02 08:40:55;;;;;;;5.00;1.30;;;;;;;8.14;72.76;95008.99;106711;1275;25530;-78
2023/11/02 08:43:23;;;;;;;3.20;1.40;;;;;;;8.20;72.85;95012.05;106659;1274;22534;-78
2023/11/02 08:45:51;;;;;;;3.50;1.50;;;;;;;8.24;72.22;95004.97;106772;1274;22527;-78
2023/11/02 08:48:20;;;;;;;2.10;1.40;;;;;;;8.35;72.61;95003.52;106721;1275;25472;-79
2023/11/02 08:50:48;;;;;;;1.80;1.20;;;;;;;8.52;72.13;95000.77;106721;1274;25533;-79
2023/11/02 08:53:16;;;;;;;1.90;1.20;;;;;;;8.68;72.12;95001.15;106731;1274;22679;-78
2023/11/02 08:55:44;;;;;;;2.90;1.60;;;;;;;8.87;72.29;94996.70;106703;1274;24273;-79
2023/11/02 08:58:12;;;;;;;1.60;0.90;;;;;;;9.12;72.15;94993.69;106759;1273;22523;-78
2023/11/02 09:00:40;;;;;;;2.10;1.00;;;;;;;9.28;71.14;94989.30;106820;1274;25298;-78
2023/11/02 09:03:08;;;;;;;2.00;1.30;;;;;;;9.43;71.32;94990.52;106725;1274;22521;-79
2023/11/02 09:05:37;;;;;;;1.40;1.10;;;;;;;9.66;70.77;94984.72;106706;1274;25351;-79
2023/11/02 09:08:05;;;;;;;2.80;1.00;;;;;;;9.92;70.80;94981.92;106813;1274;22644;-79
2023/11/02 09:10:33;;;;;;;1.10;0.90;;;;;;;10.26;70.99;94975.25;106624;1274;25486;-79
2023/11/02 09:13:02;;;;;;;1.10;0.90;;;;;;;10.59;69.97;94971.02;106684;1274;22522;-79
2023/11/02 09:15:30;;;;;;;1.60;1.20;;;;;;;10.86;69.12;94968.82;106743;1263;22562;-79
2023/11/02 09:17:58;;;;;;;1.60;1.10;;;;;;;11.11;67.98;94968.95;106637;1274;22559;-76
2023/11/02 09:20:26;;;;;;;1.40;1.10;;;;;;;11.22;66.37;94963.15;106630;1275;25268;-79
2023/11/02 09:22:56;;;;;;;1.00;0.90;;;;;;;11.32;66.35;94962.66;106785;1274;23880;-79
2023/11/02 09:25:24;;;;;;;6.40;3.50;;;;;;;11.48;65.87;94955.98;106720;1274;25486;-79
2023/11/02 09:27:52;;;;;;;1.90;1.30;;;;;;;11.59;64.59;94950.52;106717;1275;22532;-79
2023/11/02 09:30:20;;;;;;;2.30;1.70;;;;;;;11.61;64.74;94951.85;106792;1274;23250;-79
2023/11/02 09:32:48;;;;;;;1.10;1.00;;;;;;;11.73;64.62;94944.94;106929;1274;22529;-79
2023/11/02 09:35:17;;;;;;;1.50;1.10;;;;;;;11.81;63.98;94936.23;106679;1274;22516;-78
2023/11/02 09:37:45;;;;;;;1.90;1.50;;;;;;;11.80;62.32;94931.14;106702;1274;22530;-78
2023/11/02 09:40:17;;;;;;;2.90;1.50;;;;;;;11.80;63.11;94925.52;106729;1274;22523;-79
2023/11/02 09:42:45;;;;;;;1.20;1.10;;;;;;;11.88;63.06;94918.37;106749;1274;22668;-79
2023/11/02 09:45:14;;;;;;;2.20;1.40;;;;;;;12.00;62.31;94918.14;106615;1274;22663;-79
2023/11/02 09:47:45;;;;;;;2.70;1.50;;;;;;;12.01;61.06;94916.55;106737;1274;22526;-78
2023/11/02 09:50:14;;;;;;;1.70;1.30;;;;;;;12.05;61.36;94908.66;106758;1275;22465;-79
2023/11/02 09:52:46;;;;;;;2.80;1.60;;;;;;;12.15;61.74;94901.06;106581;1274;24373;-79
2023/11/02 09:55:15;;;;;;;4.60;1.70;;;;;;;12.34;62.12;94899.66;106636;1274;22627;-79
2023/11/02 09:57:45;;;;;;;2.50;1.60;;;;;;;12.58;60.50;94896.14;106715;1274;22530;-78
2023/11/02 10:00:17;;;;;;;3.60;2.60;;;;;;;12.90;59.18;94888.92;106722;1274;23666;-77
2023/11/02 10:02:50;;;;;;;4.40;2.90;;;;;;;13.18;57.40;94887.11;106803;1268;22650;-76
2023/11/02 10:05:19;;;;;;;3.80;1.70;;;;;;;13.51;56.56;94888.64;106759;1275;22534;-77
2023/11/02 10:07:51;;;;;;;2.80;1.60;;;;;;;13.82;56.03;94890.70;106619;1275;24286;-77
2023/11/02 10:10:21;;;;;;;2.30;1.60;;;;;;;14.02;54.16;94892.82;106758;1274;22783;-78
2023/11/02 10:12:49;;;;;;;3.80;2.20;;;;;;;14.36;54.96;94897.19;106648;1259;22530;-78
2023/11/02 10:15:17;;;;;;;2.00;1.20;;;;;;;14.65;54.34;94896.80;106725;1274;22540;-79
2023/11/02 10:17:45;;;;;;;1.60;1.10;;;;;;;14.96;52.18;94888.30;106733;1271;24303;-79
2023/11/02 10:20:17;;;;;;;1.50;1.40;;;;;;;15.03;52.36;94880.69;106684;1275;22540;-79
2023/11/02 10:23:00;;;;;;;1.80;1.40;;;;;;;14.95;52.56;94878.04;106719;1275;22642;-79
2023/11/02 10:25:29;;;;;;;2.10;1.70;;;;;;;14.70;52.47;94877.81;106770;1274;25351;-79
2023/11/02 10:27:58;;;;;;;2.10;1.60;;;;;;;14.31;52.02;94869.44;106712;1274;25344;-78
2023/11/02 10:30:26;;;;;;;3.50;1.70;;;;;;;13.86;52.73;94868.05;106653;1274;22642;-77
2023/11/02 10:33:06;;;;;;;1.60;1.50;;;;;;;13.40;53.44;94867.35;106730;1275;22521;-78
2023/11/02 10:35:37;;;;;;;1.70;1.40;;;;;;;12.97;54.14;94870.63;106699;1274;22531;-79
2023/11/02 10:38:09;;;;;;;1.40;1.30;;;;;;;12.72;55.45;94874.95;106684;1275;22522;-78
2023/11/02 10:40:45;;;;;;;3.90;1.80;;;;;;;12.59;55.96;94873.85;106486;1274;24262;-77
2023/11/02 10:43:18;;;;;;;2.30;1.60;;;;;;;12.46;56.94;94872.05;106646;1274;22524;-78
2023/11/02 10:45:49;;;;;;;1.90;1.70;;;;;;;12.35;58.03;94875.81;106801;1274;24355;-78
2023/11/02 10:48:19;;;;;;;1.80;1.60;;;;;;;12.25;57.67;94877.59;106659;1274;24278;-79
2023/11/02 10:50:52;;;;;;;2.10;1.90;;;;;;;12.16;58.21;94870.00;106739;1275;25419;-79
2023/11/02 10:53:34;;;;;;;1.70;1.40;;;;;;;12.10;59.03;94865.79;106706;1274;25522;-79
2023/11/02 10:56:13;;;;;;;2.30;1.60;;;;;;;12.08;59.16;94865.17;106678;1274;25239;-78
2023/11/02 10:58:42;;;;;;;1.90;1.60;;;;;;;11.99;59.06;94863.03;106764;1275;22640;-79
2023/11/02 11:01:11;;;;;;;2.00;1.50;;;;;;;11.89;58.73;94864.95;106690;1275;22537;-79
2023/11/02 11:03:40;;;;;;;2.30;1.80;;;;;;;11.84;59.16;94863.89;106745;1274;22668;-78
2023/11/02 11:06:09;;;;;;;2.60;1.80;;;;;;;11.77;58.81;94865.00;106756;1274;22530;-79
2023/11/02 11:08:39;;;;;;;3.00;1.70;;;;;;;11.69;58.97;94863.70;106601;1275;22603;-79
2023/11/02 11:11:10;;;;;;;3.80;2.00;;;;;;;11.64;59.40;94859.80;106709;1274;25376;-79
2023/11/02 11:13:40;;;;;;;3.90;2.00;;;;;;;11.60;59.41;94861.36;106711;1274;22643;-79
2023/11/02 11:16:10;;;;;;;3.80;2.50;;;;;;;11.56;59.62;94864.84;106673;1274;25246;-79
2023/11/02 11:18:41;;;;;;;3.30;2.10;;;;;;;11.53;59.70;94862.30;106664;1274;22671;-79
2023/11/02 11:21:11;;;;;;;3.10;1.90;;;;;;;11.46;59.16;94860.58;106665;1274;25327;-78
2023/11/02 11:23:45;;;;;;;3.90;2.40;;;;;;;11.42;59.89;94860.36;106713;1274;24464;-77
2023/11/02 11:26:13;;;;;;;4.90;3.00;;;;;;;11.35;59.98;94863.44;106704;1274;22572;-78
2023/11/02 11:28:41;;;;;;;5.30;3.10;;;;;;;11.29;60.45;94858.02;106744;1274;22529;-77
2023/11/02 11:31:48;;;;;;;9.20;4.70;;;;;;;11.29;60.69;94859.06;106730;1274;25400;-78
2023/11/02 11:34:16;;;;;;;8.90;4.90;;;;;;;11.25;60.93;94860.58;106702;1274;25380;-79
2023/11/02 11:36:44;;;;;;;7.80;4.60;;;;;;;11.22;60.39;94858.73;106633;1275;23291;-78
2023/11/02 11:39:34;;;;;;;7.70;4.50;;;;;;;11.18;60.23;94853.27;106728;1274;22523;-79
2023/11/02 11:42:02;;;;;;;6.90;3.70;;;;;;;11.14;60.77;94848.11;106686;1274;22738;-78
2023/11/02 11:44:31;;;;;;;4.20;3.10;;;;;;;11.10;60.91;94844.01;106593;1274;25378;-78
2023/11/02 11:47:00;;;;;;;6.30;3.30;;;;;;;11.10;61.22;94840.13;106655;1274;24362;-78
2023/11/02 11:49:33;;;;;;;6.40;3.90;;;;;;;11.13;61.55;94838.48;106816;1274;22542;-78
2023/11/02 11:52:03;;;;;;;6.80;3.90;;;;;;;11.12;60.86;94837.09;106687;1274;24275;-79
2023/11/02 11:54:31;;;;;;;5.70;3.60;;;;;;;11.10;60.56;94831.00;106771;1274;22567;-78
2023/11/02 11:56:59;;;;;;;5.00;2.70;;;;;;;11.10;60.62;94829.04;106763;1275;23926;-79
2023/11/02 11:59:56;;;;;;;5.10;2.80;;;;;;;11.11;60.56;94828.84;106616;1275;22531;-78
2023/11/02 12:02:44;;;;;;;5.30;3.00;;;;;;;11.17;60.95;94824.23;106932;1274;25294;-79